Time;durP1;ratioP1;P1;durP2;ratioP2;P2;SDS_P1;SDS_P2;PMS_P1;PMS_P2;Temp;Humidity;BMP_temperature;BMP_pressure;BME280_temperature;BME280_humidity;BME280_pressure;Samples;Min_cycle;Max_cycle;Signal;HPM_P1;HPM_P2
2022/01/07 00:01:26;;;;;;;;;;;;;;;1.10;59.23;100363.00;4438432;32;20064;-91
2022/01/07 00:03:51;;;;;;;;;;;;;;;1.21;59.24;100355.50;4438653;32;20266;-91
2022/01/07 00:06:17;;;;;;;;;;;;;;;1.23;59.24;100366.63;4438637;32;19992;-93
2022/01/07 00:08:42;;;;;;;;;;;;;;;1.14;59.23;100371.59;4425485;32;19982;-89
2022/01/07 00:11:07;;;;;;;;;;;;;;;1.23;59.24;100376.91;4438338;32;20049;-90
2022/01/07 00:13:33;;;;;;;;;;;;;;;1.40;59.25;100384.81;4438014;32;20291;-88
2022/01/07 00:15:58;;;;;;;;;;;;;;;1.33;59.25;100383.88;4437780;32;20629;-90
2022/01/07 00:18:24;;;;;;;;;;;;;;;1.43;59.25;100383.19;4439032;32;20011;-91
2022/01/07 00:20:50;;;;;;;;;;;;;;;1.37;59.24;100390.78;4437454;32;20000;-90
2022/01/07 00:23:21;;;;;;;;;;;;;;;1.33;59.25;100391.56;4425019;32;20003;-91
2022/01/07 00:25:46;;;;;;;;;;;;;;;1.32;59.24;100394.13;4437874;32;20033;-88
2022/01/07 00:28:12;;;;;;;;;;;;;;;1.22;59.24;100391.41;4437802;32;20005;-89
2022/01/07 00:30:37;;;;;;;;;;;;;;;1.28;59.24;100379.53;4437546;32;20012;-90
2022/01/07 00:33:03;;;;;;;;;;;;;;;1.06;59.23;100392.00;4424782;32;20001;-89
2022/01/07 00:35:28;;;;;;;;;;;;;;;1.07;59.23;100396.28;4425012;32;20281;-88
2022/01/07 00:37:53;;;;;;;;;;;;;;;1.05;59.24;100397.09;4437401;32;20001;-90
2022/01/07 00:40:21;;;;;;;;;;;;;;;1.06;59.23;100402.25;4437106;32;20066;-89
2022/01/07 00:42:48;;;;;;;;;;;;;;;1.02;59.22;100400.47;4437562;32;19981;-89
2022/01/07 00:45:13;;;;;;;;;;;;;;;1.18;59.23;100396.44;4437832;32;19987;-90
2022/01/07 00:47:38;;;;;;;;;;;;;;;0.98;59.23;100400.41;4437593;32;20029;-90
2022/01/07 00:50:04;;;;;;;;;;;;;;;0.97;59.23;100402.09;4434612;32;19990;-89
2022/01/07 00:52:29;;;;;;;;;;;;;;;1.02;59.22;100389.37;4422392;32;20070;-90
2022/01/07 00:54:55;;;;;;;;;;;;;;;1.04;59.24;100386.00;4422199;32;19981;-90
2022/01/07 00:57:23;;;;;;;;;;;;;;;0.82;59.22;100392.44;4422189;32;20000;-90
2022/01/07 00:59:48;;;;;;;;;;;;;;;0.87;59.21;100398.50;4422544;32;20002;-91
2022/01/07 01:02:13;;;;;;;;;;;;;;;0.96;59.22;100396.97;4435210;32;19997;-89
2022/01/07 01:04:39;;;;;;;;;;;;;;;0.87;59.22;100395.94;4422158;32;20032;-90
2022/01/07 01:07:04;;;;;;;;;;;;;;;0.75;59.21;100384.62;4421139;32;19982;-88
2022/01/07 01:09:29;;;;;;;;;;;;;;;0.56;59.20;100380.88;4422519;32;20010;-88
2022/01/07 01:11:54;;;;;;;;;;;;;;;0.35;59.19;100368.53;4421191;32;20471;-89
2022/01/07 01:14:20;;;;;;;;;;;;;;;0.33;59.19;100377.00;4421425;32;19982;-87
2022/01/07 01:16:47;;;;;;;;;;;;;;;0.33;59.19;100374.44;4421274;32;20020;-87
2022/01/07 01:19:12;;;;;;;;;;;;;;;0.14;59.18;100381.75;4434140;32;19993;-88
2022/01/07 01:21:37;;;;;;;;;;;;;;;0.04;59.17;100377.31;4421051;32;23943;-88
2022/01/07 01:24:03;;;;;;;;;;;;;;;0.18;59.18;100372.44;4434435;32;19973;-89
2022/01/07 01:26:28;;;;;;;;;;;;;;;0.26;59.19;100361.53;4421718;32;20005;-88
2022/01/07 01:28:53;;;;;;;;;;;;;;;0.29;59.18;100356.47;4434458;32;19985;-88
2022/01/07 01:31:19;;;;;;;;;;;;;;;0.24;59.19;100357.22;4421459;32;20459;-89
2022/01/07 01:33:44;;;;;;;;;;;;;;;0.24;59.18;100352.97;4421325;32;19977;-89
2022/01/07 01:36:09;;;;;;;;;;;;;;;0.34;59.19;100358.25;4434119;32;20001;-89
2022/01/07 01:38:35;;;;;;;;;;;;;;;0.33;59.19;100362.50;4436811;32;19993;-89
2022/01/07 01:41:00;;;;;;;;;;;;;;;0.38;59.20;100365.16;4438000;32;20309;-88
2022/01/07 01:43:26;;;;;;;;;;;;;;;0.25;59.19;100369.19;4423697;32;20037;-89
2022/01/07 01:45:51;;;;;;;;;;;;;;;0.44;59.20;100366.13;4435958;32;24698;-88
2022/01/07 01:48:16;;;;;;;;;;;;;;;0.42;59.19;100366.94;4436469;32;20368;-90
2022/01/07 01:50:41;;;;;;;;;;;;;;;0.33;59.19;100366.78;4435097;32;22006;-88
2022/01/07 01:53:07;;;;;;;;;;;;;;;0.41;59.19;100365.22;4436291;32;20008;-90
2022/01/07 01:55:32;;;;;;;;;;;;;;;0.48;59.20;100378.19;4437938;32;20020;-87
2022/01/07 01:57:57;;;;;;;;;;;;;;;0.51;59.20;100385.91;4436018;32;20761;-90
2022/01/07 02:00:23;;;;;;;;;;;;;;;0.70;59.21;100393.91;4436189;32;20296;-89
2022/01/07 02:02:49;;;;;;;;;;;;;;;0.57;59.20;100398.81;4437582;32;20564;-89
2022/01/07 02:05:14;;;;;;;;;;;;;;;0.60;59.21;100400.56;4437509;32;20041;-89
2022/01/07 02:07:40;;;;;;;;;;;;;;;0.81;59.21;100398.41;4436101;32;20001;-88
2022/01/07 02:10:06;;;;;;;;;;;;;;;0.98;59.23;100402.97;4436197;32;20400;-89
2022/01/07 02:12:31;;;;;;;;;;;;;;;0.92;59.23;100416.53;4435941;32;20023;-89
2022/01/07 02:14:56;;;;;;;;;;;;;;;0.99;59.22;100414.94;4423308;32;20294;-88
2022/01/07 02:17:22;;;;;;;;;;;;;;;1.06;59.23;100416.78;4436019;32;20004;-88
2022/01/07 02:19:48;;;;;;;;;;;;;;;1.02;59.22;100413.28;4435902;32;19996;-88
2022/01/07 02:22:13;;;;;;;;;;;;;;;0.96;59.23;100410.63;4435792;32;19978;-87
2022/01/07 02:24:38;;;;;;;;;;;;;;;0.95;59.22;100420.84;4435796;32;20001;-87
2022/01/07 02:27:05;;;;;;;;;;;;;;;0.85;59.22;100414.69;4436004;32;19985;-88
2022/01/07 02:29:30;;;;;;;;;;;;;;;0.88;59.22;100420.72;4436135;32;20029;-90
2022/01/07 02:31:56;;;;;;;;;;;;;;;0.72;59.21;100418.75;4423883;32;20778;-91
2022/01/07 02:34:22;;;;;;;;;;;;;;;0.79;59.21;100419.72;4436162;32;20005;-90
2022/01/07 02:36:47;;;;;;;;;;;;;;;0.76;59.22;100411.97;4436641;32;19993;-90
2022/01/07 02:39:12;;;;;;;;;;;;;;;0.89;59.23;100411.34;4436291;32;19988;-89
2022/01/07 02:41:37;;;;;;;;;;;;;;;0.68;59.21;100419.50;4436197;32;20012;-88
2022/01/07 02:44:03;;;;;;;;;;;;;;;0.78;59.22;100428.25;4436371;32;19989;-89
2022/01/07 02:46:28;;;;;;;;;;;;;;;0.76;59.21;100424.78;4436190;32;19993;-90
2022/01/07 02:48:53;;;;;;;;;;;;;;;0.73;59.21;100419.63;4435709;32;19993;-90
2022/01/07 02:51:19;;;;;;;;;;;;;;;0.59;59.21;100427.91;4436353;32;20047;-89
2022/01/07 02:53:44;;;;;;;;;;;;;;;0.60;59.20;100419.38;4436357;32;19993;-90
2022/01/07 02:56:11;;;;;;;;;;;;;;;0.59;59.21;100414.22;4436775;32;20034;-89
2022/01/07 02:58:36;;;;;;;;;;;;;;;0.60;59.21;100413.37;4436073;32;19977;-90
2022/01/07 03:01:01;;;;;;;;;;;;;;;0.60;59.21;100411.69;4435833;32;19977;-89
2022/01/07 03:03:27;;;;;;;;;;;;;;;0.54;59.20;100403.91;4437295;32;20011;-89
2022/01/07 03:05:52;;;;;;;;;;;;;;;0.43;59.19;100409.63;4438464;32;20004;-91
2022/01/07 03:08:17;;;;;;;;;;;;;;;0.42;59.19;100415.59;4438595;32;20012;-90
2022/01/07 03:10:43;;;;;;;;;;;;;;;0.42;59.19;100413.03;4439127;32;19982;-91
2022/01/07 03:13:09;;;;;;;;;;;;;;;0.38;59.20;100406.13;4438565;32;20246;-90
2022/01/07 03:15:35;;;;;;;;;;;;;;;0.45;59.20;100406.25;4426475;32;20001;-91
2022/01/07 03:18:01;;;;;;;;;;;;;;;0.31;59.19;100410.28;4426876;32;19973;-93
2022/01/07 03:20:26;;;;;;;;;;;;;;;0.19;59.18;100418.56;4426746;32;20029;-93
2022/01/07 03:22:51;;;;;;;;;;;;;;;0.27;59.19;100414.47;4426793;32;20075;-91
2022/01/07 03:25:17;;;;;;;;;;;;;;;0.18;59.18;100416.81;4427430;32;20005;-92
2022/01/07 03:27:54;;;;;;;;;;;;;;;0.13;59.18;100430.37;4426893;32;20001;-91
2022/01/07 03:30:20;;;;;;;;;;;;;;;0.02;59.17;100435.28;4426733;32;20575;-92
2022/01/07 03:32:45;;;;;;;;;;;;;;;0.02;59.18;100437.84;4426519;32;19985;-91
2022/01/07 03:35:11;;;;;;;;;;;;;;;0.14;59.18;100440.66;4438377;32;20000;-89
2022/01/07 03:37:37;;;;;;;;;;;;;;;0.18;59.18;100442.44;4439132;32;19974;-89
2022/01/07 03:40:03;;;;;;;;;;;;;;;0.24;59.18;100454.53;4437814;32;19990;-89
2022/01/07 03:42:28;;;;;;;;;;;;;;;0.16;59.18;100454.34;4424317;32;19997;-90
2022/01/07 03:44:53;;;;;;;;;;;;;;;0.15;59.17;100450.06;4438164;32;20004;-91
2022/01/07 03:47:18;;;;;;;;;;;;;;;0.09;59.18;100439.69;4438387;32;20024;-90
2022/01/07 03:49:44;;;;;;;;;;;;;;;0.21;59.18;100446.75;4437819;32;20041;-91
2022/01/07 03:52:09;;;;;;;;;;;;;;;0.15;59.17;100452.59;4438220;32;20023;-91
2022/01/07 03:54:34;;;;;;;;;;;;;;;0.05;59.17;100453.25;4438020;32;20356;-89
2022/01/07 03:57:00;;;;;;;;;;;;;;;-0.12;59.17;100452.88;4438332;32;20238;-90
2022/01/07 03:59:25;;;;;;;;;;;;;;;-0.07;59.17;100453.84;4439363;32;19969;-90
2022/01/07 04:01:50;;;;;;;;;;;;;;;0.03;59.17;100449.81;4439092;32;20293;-90
2022/01/07 04:04:15;;;;;;;;;;;;;;;0.11;59.18;100461.06;4438670;32;19989;-92
2022/01/07 04:06:41;;;;;;;;;;;;;;;-0.07;59.16;100458.09;4439890;32;20741;-93
2022/01/07 04:09:06;;;;;;;;;;;;;;;-0.18;59.16;100455.31;4439757;32;19982;-94
2022/01/07 04:11:31;;;;;;;;;;;;;;;-0.31;59.15;100459.28;4440687;32;20001;-96
2022/01/07 04:13:56;;;;;;;;;;;;;;;-0.32;59.15;100452.44;4440407;32;20047;-94
2022/01/07 04:16:21;;;;;;;;;;;;;;;-0.28;59.16;100452.50;4440936;32;20215;-95
2022/01/07 04:18:47;;;;;;;;;;;;;;;-0.28;59.16;100457.59;4440902;32;20004;-94
2022/01/07 04:21:13;;;;;;;;;;;;;;;-0.24;59.15;100450.03;4440655;32;19996;-93
2022/01/07 04:23:39;;;;;;;;;;;;;;;-0.12;59.17;100454.56;4440464;32;20419;-96
2022/01/07 04:26:04;;;;;;;;;;;;;;;-0.16;59.16;100450.22;4441082;32;19988;-95
2022/01/07 04:28:29;;;;;;;;;;;;;;;-0.15;59.16;100446.84;4440134;32;20479;-91
2022/01/07 04:30:55;;;;;;;;;;;;;;;-0.07;59.16;100445.31;4437795;32;20062;-90
2022/01/07 04:33:27;;;;;;;;;;;;;;;-0.19;59.16;100453.59;4437865;32;19999;-87
2022/01/07 04:35:53;;;;;;;;;;;;;;;-0.16;59.16;100453.66;4437889;32;19985;-91
2022/01/07 04:38:18;;;;;;;;;;;;;;;-0.58;59.15;100456.06;4438372;32;19970;-91
2022/01/07 04:40:43;;;;;;;;;;;;;;;-0.49;59.15;100451.16;4438130;32;19997;-89
2022/01/07 04:43:08;;;;;;;;;;;;;;;-0.52;59.14;100451.09;4437774;32;19989;-89
2022/01/07 04:45:34;;;;;;;;;;;;;;;-0.47;59.14;100461.47;4438015;32;19974;-88
2022/01/07 04:47:59;;;;;;;;;;;;;;;-0.53;59.14;100464.72;4438303;32;20028;-90
2022/01/07 04:50:24;;;;;;;;;;;;;;;-0.60;59.13;100472.19;4437455;32;19986;-91
2022/01/07 04:52:50;;;;;;;;;;;;;;;-0.56;59.14;100479.97;4438609;32;20360;-92
2022/01/07 04:55:19;;;;;;;;;;;;;;;-0.62;59.14;100472.16;4439169;32;19981;-92
2022/01/07 04:57:45;;;;;;;;;;;;;;;-0.62;59.13;100480.69;4440013;32;20008;-93
2022/01/07 05:00:11;;;;;;;;;;;;;;;-0.57;59.15;100468.03;4439760;32;19985;-92
2022/01/07 05:02:36;;;;;;;;;;;;;;;-0.38;59.14;100471.88;4438000;32;19976;-91
2022/01/07 05:05:01;;;;;;;;;;;;;;;-0.62;59.14;100474.72;4438275;32;20012;-91
2022/01/07 05:07:27;;;;;;;;;;;;;;;-0.55;59.14;100473.19;4439896;32;20033;-93
2022/01/07 05:10:01;;;;;;;;;;;;;;;-0.77;59.13;100471.78;4439988;32;20013;-94
2022/01/07 05:12:26;;;;;;;;;;;;;;;-1.00;59.11;100473.75;4438145;32;20643;-90
2022/01/07 05:14:51;;;;;;;;;;;;;;;-1.00;59.12;100471.19;4438174;32;20018;-90
2022/01/07 05:17:16;;;;;;;;;;;;;;;-0.96;59.11;100471.31;4424977;32;19985;-88
2022/01/07 05:19:42;;;;;;;;;;;;;;;-1.10;59.10;100462.44;4438045;32;20050;-90
2022/01/07 05:22:07;;;;;;;;;;;;;;;-1.14;59.11;100475.97;4439557;32;19978;-94
2022/01/07 05:24:32;;;;;;;;;;;;;;;-1.04;59.11;100464.28;4440277;32;19973;-94
2022/01/07 05:30:22;;;;;;;;;;;;;;;-1.10;59.10;100474.34;4388383;32;20057;-93
2022/01/07 05:32:47;;;;;;;;;;;;;;;-1.07;59.11;100482.94;4392061;32;20041;-89
2022/01/07 05:35:13;;;;;;;;;;;;;;;-1.20;59.10;100480.00;4408298;32;20542;-90
2022/01/07 05:37:38;;;;;;;;;;;;;;;-1.24;59.09;100486.72;4436852;32;20231;-87
2022/01/07 05:40:07;;;;;;;;;;;;;;;-1.26;59.10;100485.81;4436240;32;20294;-87
2022/01/07 05:42:32;;;;;;;;;;;;;;;-1.36;59.09;100489.84;4437407;32;19977;-87
2022/01/07 05:44:57;;;;;;;;;;;;;;;-1.39;59.09;100491.44;4436415;32;20011;-87
2022/01/07 05:47:22;;;;;;;;;;;;;;;-1.49;59.08;100477.53;4436270;32;19973;-89
2022/01/07 05:49:48;;;;;;;;;;;;;;;-1.52;59.08;100474.91;4423221;32;20022;-89
2022/01/07 05:52:13;;;;;;;;;;;;;;;-1.49;59.08;100489.44;4436209;32;20277;-88
2022/01/07 05:54:38;;;;;;;;;;;;;;;-1.45;59.08;100494.66;4436060;32;19996;-87
2022/01/07 05:57:05;;;;;;;;;;;;;;;-1.59;59.08;100488.31;4435979;32;20046;-88
2022/01/07 05:59:30;;;;;;;;;;;;;;;-1.45;59.08;100493.81;4437308;32;19985;-88
2022/01/07 06:01:55;;;;;;;;;;;;;;;-1.56;59.08;100499.47;4435979;32;19981;-88
2022/01/07 06:04:21;;;;;;;;;;;;;;;-1.75;59.06;100493.78;4435588;32;22023;-87
2022/01/07 06:06:46;;;;;;;;;;;;;;;-1.57;59.08;100489.22;4435693;32;23047;-88
2022/01/07 06:09:11;;;;;;;;;;;;;;;-1.66;59.08;100492.34;4436067;32;19993;-87
2022/01/07 06:11:36;;;;;;;;;;;;;;;-1.73;59.07;100498.13;4423502;32;19993;-87
2022/01/07 06:14:02;;;;;;;;;;;;;;;-1.86;59.06;100498.59;4437229;32;19973;-89
2022/01/07 06:16:27;;;;;;;;;;;;;;;-1.89;59.06;100507.03;4436905;32;23336;-91
2022/01/07 06:18:57;;;;;;;;;;;;;;;-1.97;59.05;100510.16;4437720;32;19986;-92
2022/01/07 06:21:22;;;;;;;;;;;;;;;-1.72;59.07;100506.62;4437118;32;20017;-89
2022/01/07 06:23:47;;;;;;;;;;;;;;;-1.94;59.06;100505.13;4436885;32;19982;-91
2022/01/07 06:26:13;;;;;;;;;;;;;;;-1.97;59.05;100510.16;4436685;32;19992;-91
2022/01/07 06:28:38;;;;;;;;;;;;;;;-1.97;59.05;100512.69;4436680;32;19985;-91
2022/01/07 06:31:03;;;;;;;;;;;;;;;-1.90;59.06;100514.59;4436526;32;20001;-90
2022/01/07 06:33:28;;;;;;;;;;;;;;;-1.90;59.06;100519.72;4436389;32;20226;-90
2022/01/07 06:35:53;;;;;;;;;;;;;;;-1.97;59.05;100515.25;4423430;32;19985;-89
2022/01/07 06:38:19;;;;;;;;;;;;;;;-1.94;59.06;100528.09;4437398;32;20076;-89
2022/01/07 06:40:44;;;;;;;;;;;;;;;-2.10;59.05;100529.31;4438189;32;20355;-90
2022/01/07 06:43:09;;;;;;;;;;;;;;;-2.09;59.05;100522.53;4438352;32;20023;-89
2022/01/07 06:45:35;;;;;;;;;;;;;;;-1.94;59.06;100534.06;4438618;32;20042;-90
2022/01/07 06:48:00;;;;;;;;;;;;;;;-2.09;59.05;100540.41;4438455;32;20001;-91
2022/01/07 06:50:25;;;;;;;;;;;;;;;-2.10;59.05;100533.56;4438238;32;20306;-91
2022/01/07 06:52:50;;;;;;;;;;;;;;;-2.09;59.05;100532.75;4438216;32;19997;-91
2022/01/07 06:55:15;;;;;;;;;;;;;;;-2.04;59.05;100537.16;4438066;32;20031;-89
2022/01/07 06:57:41;;;;;;;;;;;;;;;-1.96;59.05;100529.72;4437891;32;24203;-91
2022/01/07 07:00:06;;;;;;;;;;;;;;;-2.06;59.04;100536.25;4438400;32;19994;-91
2022/01/07 07:02:32;;;;;;;;;;;;;;;-1.92;59.06;100541.75;4438802;32;19973;-91
2022/01/07 07:04:57;;;;;;;;;;;;;;;-1.86;59.06;100539.41;4439038;32;19996;-91
2022/01/07 07:07:22;;;;;;;;;;;;;;;-1.93;59.06;100543.44;4438219;32;19981;-90
2022/01/07 07:09:47;;;;;;;;;;;;;;;-1.94;59.06;100546.81;4438891;32;19982;-92
2022/01/07 07:12:13;;;;;;;;;;;;;;;-1.96;59.05;100539.94;4439356;32;20025;-92
2022/01/07 07:14:38;;;;;;;;;;;;;;;-1.78;59.06;100544.75;4440503;32;20238;-93
2022/01/07 07:17:04;;;;;;;;;;;;;;;-1.77;59.07;100551.56;4440322;32;20008;-92
2022/01/07 07:19:29;;;;;;;;;;;;;;;-1.81;59.07;100542.97;4440167;32;20055;-93
2022/01/07 07:21:54;;;;;;;;;;;;;;;-1.81;59.07;100542.09;4440277;32;19992;-93
2022/01/07 07:24:20;;;;;;;;;;;;;;;-1.59;59.08;100541.94;4440396;32;19978;-93
2022/01/07 07:26:45;;;;;;;;;;;;;;;-1.72;59.07;100545.78;4440227;32;20240;-92
2022/01/07 07:29:10;;;;;;;;;;;;;;;-1.45;59.08;100539.75;4440286;32;20030;-92
2022/01/07 07:31:39;;;;;;;;;;;;;;;-1.45;59.08;100549.97;4440172;32;19989;-92
2022/01/07 07:36:48;;;;;;;;;;;;;;;-1.41;59.08;100547.56;4440567;32;19991;-93
2022/01/07 07:39:14;;;;;;;;;;;;;;;-1.35;59.09;100546.88;4439726;32;19989;-92
2022/01/07 07:41:39;;;;;;;;;;;;;;;-1.26;59.10;100552.22;4439781;32;20012;-93
2022/01/07 07:44:05;;;;;;;;;;;;;;;-1.16;59.11;100554.25;4440104;32;19993;-93
2022/01/07 07:46:31;;;;;;;;;;;;;;;-1.00;59.11;100556.38;4440061;32;19990;-93
2022/01/07 07:48:57;;;;;;;;;;;;;;;-0.95;59.11;100549.72;4438948;32;20017;-92
2022/01/07 07:51:22;;;;;;;;;;;;;;;-0.89;59.12;100549.00;4440454;32;19974;-92
2022/01/07 07:53:47;;;;;;;;;;;;;;;-0.87;59.12;100551.63;4440112;32;20020;-93
2022/01/07 07:56:13;;;;;;;;;;;;;;;-0.91;59.11;100549.81;4439863;32;20041;-93
2022/01/07 07:58:38;;;;;;;;;;;;;;;-0.79;59.13;100550.13;4440157;32;20016;-93
2022/01/07 08:01:04;;;;;;;;;;;;;;;-0.78;59.13;100549.28;4440142;32;19993;-93
2022/01/07 08:03:29;;;;;;;;;;;;;;;-0.58;59.13;100554.94;4439986;32;20008;-93
2022/01/07 08:05:54;;;;;;;;;;;;;;;-0.74;59.12;100559.63;4440023;32;19997;-92
2022/01/07 08:08:19;;;;;;;;;;;;;;;-0.67;59.13;100563.22;4440433;32;20025;-94
2022/01/07 08:10:51;;;;;;;;;;;;;;;-0.50;59.14;100548.31;4439632;32;19999;-91
2022/01/07 08:16:01;;;;;;;;;;;;;;;-0.33;59.15;100557.28;4438874;32;20692;-92
2022/01/07 08:18:34;;;;;;;;;;;;;;;-0.16;59.16;100538.09;4439409;32;20626;-92
2022/01/07 08:21:03;;;;;;;;;;;;;;;0.10;59.17;100546.38;4439620;32;19980;-92
2022/01/07 08:23:29;;;;;;;;;;;;;;;0.27;59.19;100555.31;4439639;32;19997;-92
2022/01/07 08:25:55;;;;;;;;;;;;;;;0.38;59.20;100554.66;4439230;32;20054;-93
2022/01/07 08:28:23;;;;;;;;;;;;;;;0.52;59.20;100560.97;4439495;32;19993;-92
2022/01/07 08:36:10;;;;;;;;;;;;;;;0.87;59.21;100556.53;4439138;32;20004;-92
2022/01/07 08:38:35;;;;;;;;;;;;;;;1.10;59.23;100554.44;4439388;32;20319;-92
2022/01/07 08:41:00;;;;;;;;;;;;;;;1.32;59.24;100548.87;4439064;32;20038;-92
2022/01/07 08:43:26;;;;;;;;;;;;;;;1.27;59.24;100555.63;4439446;32;20019;-93
2022/01/07 08:45:51;;;;;;;;;;;;;;;1.37;59.25;100554.06;4438320;32;20005;-93
2022/01/07 08:48:16;;;;;;;;;;;;;;;1.49;59.26;100547.47;4439338;32;20005;-92
2022/01/07 08:50:42;;;;;;;;;;;;;;;1.76;59.27;100556.47;4439125;32;19977;-91
2022/01/07 08:53:07;;;;;;;;;;;;;;;1.75;59.27;100554.75;4438924;32;20019;-92
2022/01/07 08:55:33;;;;;;;;;;;;;;;1.83;59.28;100561.72;4438996;32;19990;-92
2022/01/07 08:57:58;;;;;;;;;;;;;;;2.03;59.29;100554.34;4438756;32;20318;-92
2022/01/07 09:00:24;;;;;;;;;;;;;;;2.27;59.29;100555.53;4438517;32;20306;-92
2022/01/07 09:02:49;;;;;;;;;;;;;;;2.22;59.30;100550.34;4438458;32;19982;-92
2022/01/07 09:05:15;;;;;;;;;;;;;;;2.26;59.30;100546.97;4438852;32;20012;-92
2022/01/07 09:07:40;;;;;;;;;;;;;;;2.39;59.31;100541.19;4438686;32;20009;-93
2022/01/07 09:10:05;;;;;;;;;;;;;;;2.43;59.31;100540.38;4438837;32;19997;-92
2022/01/07 09:12:31;;;;;;;;;;;;;;;2.60;59.32;100537.12;4438909;32;19977;-93
2022/01/07 09:14:56;;;;;;;;;;;;;;;2.49;59.31;100531.87;4438303;32;20016;-93
2022/01/07 09:17:21;;;;;;;;;;;;;;;2.58;59.33;100531.13;4438275;32;19993;-92
2022/01/07 09:19:47;;;;;;;;;;;;;;;2.81;59.33;100533.97;4438632;32;19985;-92
2022/01/07 09:22:12;;;;;;;;;;;;;;;2.78;59.32;100522.81;4438610;32;19996;-92
2022/01/07 09:24:37;;;;;;;;;;;;;;;3.02;59.34;100526.50;4438641;32;20013;-93
2022/01/07 09:27:03;;;;;;;;;;;;;;;3.13;59.35;100524.94;4438332;32;20530;-92
2022/01/07 09:29:28;;;;;;;;;;;;;;;3.14;59.35;100515.50;4437997;32;19969;-91
2022/01/07 09:31:54;;;;;;;;;;;;;;;3.24;59.36;100515.59;4438060;32;20001;-92
2022/01/07 09:34:19;;;;;;;;;;;;;;;3.36;59.36;100526.03;4437983;32;20020;-91
2022/01/07 09:36:44;;;;;;;;;;;;;;;3.28;59.36;100513.91;4438222;32;20056;-90
2022/01/07 09:39:09;;;;;;;;;;;;;;;3.46;59.37;100508.94;4438686;32;20028;-91
2022/01/07 09:41:35;;;;;;;;;;;;;;;3.61;59.38;100503.06;4438307;32;20011;-91
2022/01/07 09:44:01;;;;;;;;;;;;;;;3.72;59.38;100503.12;4437370;32;20364;-93
2022/01/07 09:46:26;;;;;;;;;;;;;;;3.81;59.38;100496.38;4438559;32;19994;-92
2022/01/07 09:48:51;;;;;;;;;;;;;;;4.14;59.41;100493.12;4438295;32;19985;-88
2022/01/07 09:51:17;;;;;;;;;;;;;;;4.09;59.40;100488.81;4438050;32;20250;-91
2022/01/07 09:53:42;;;;;;;;;;;;;;;4.07;59.40;100480.22;4437815;32;20027;-91
2022/01/07 09:56:07;;;;;;;;;;;;;;;4.17;59.41;100475.13;4437354;32;19981;-91
2022/01/07 09:58:33;;;;;;;;;;;;;;;4.28;59.42;100477.75;4437039;32;20338;-91
2022/01/07 10:01:02;;;;;;;;;;;;;;;4.26;59.41;100470.03;4437400;32;19998;-91
2022/01/07 10:03:32;;;;;;;;;;;;;;;4.40;59.42;100475.22;4437658;32;19993;-91
2022/01/07 10:05:57;;;;;;;;;;;;;;;4.29;59.42;100471.75;4437743;32;20085;-92
2022/01/07 10:08:23;;;;;;;;;;;;;;;4.45;59.42;100470.09;4438282;32;19973;-92
2022/01/07 10:11:07;;;;;;;;;;;;;;;4.58;59.44;100465.00;4438477;32;20767;-92
2022/01/07 10:13:33;;;;;;;;;;;;;;;4.63;59.43;100471.03;4427183;32;20001;-92
2022/01/07 10:15:58;;;;;;;;;;;;;;;4.73;59.44;100456.47;4440495;32;20288;-92
2022/01/07 10:18:23;;;;;;;;;;;;;;;4.79;59.45;100464.22;4440349;32;20017;-91
2022/01/07 10:20:48;;;;;;;;;;;;;;;4.72;59.44;100457.28;4440254;32;19977;-91
2022/01/07 10:23:15;;;;;;;;;;;;;;;4.82;59.45;100455.62;4439962;32;19981;-92
2022/01/07 10:25:52;;;;;;;;;;;;;;;4.76;59.44;100455.62;4439684;32;19993;-92
2022/01/07 10:28:18;;;;;;;;;;;;;;;4.88;59.45;100447.88;4440255;32;19982;-92
2022/01/07 10:30:46;;;;;;;;;;;;;;;4.74;59.44;100447.00;4440271;32;19977;-91
2022/01/07 10:33:22;;;;;;;;;;;;;;;4.91;59.45;100450.47;4439902;32;19994;-91
2022/01/07 10:35:48;;;;;;;;;;;;;;;5.04;59.46;100434.16;4427097;32;20046;-92
2022/01/07 10:38:14;;;;;;;;;;;;;;;5.14;59.46;100432.44;4439842;32;19992;-92
2022/01/07 10:40:39;;;;;;;;;;;;;;;5.15;59.46;100435.03;4439434;32;20013;-92
2022/01/07 10:43:12;;;;;;;;;;;;;;;5.24;59.47;100424.72;4439748;32;20609;-91
2022/01/07 10:45:38;;;;;;;;;;;;;;;5.11;59.46;100424.72;4439645;32;20342;-91
2022/01/07 10:48:03;;;;;;;;;;;;;;;4.98;59.45;100415.25;4439985;32;19985;-91
2022/01/07 10:50:29;;;;;;;;;;;;;;;5.12;59.46;100414.38;4439806;32;19993;-92
2022/01/07 10:53:17;;;;;;;;;;;;;;;5.14;59.46;100420.41;4439649;32;20290;-91
2022/01/07 10:55:59;;;;;;;;;;;;;;;5.26;59.47;100408.38;4440074;32;19996;-92
2022/01/07 10:58:24;;;;;;;;;;;;;;;5.32;59.47;100400.63;4439686;32;20026;-91
2022/01/07 11:00:50;;;;;;;;;;;;;;;5.39;59.48;100410.09;4439655;32;20064;-92
2022/01/07 11:03:15;;;;;;;;;;;;;;;5.41;59.48;100401.47;4439520;32;19982;-91
2022/01/07 11:05:52;;;;;;;;;;;;;;;5.46;59.48;100398.91;4440091;32;20740;-94
2022/01/07 11:08:58;;;;;;;;;;;;;;;5.58;59.49;100395.44;4440980;32;20003;-94
2022/01/07 11:11:23;;;;;;;;;;;;;;;5.53;59.49;100390.28;4441040;32;19969;-90
2022/01/07 11:13:49;;;;;;;;;;;;;;;5.66;59.49;100388.53;4438022;32;19990;-90
2022/01/07 11:16:14;;;;;;;;;;;;;;;5.68;59.50;100392.84;4438047;32;20039;-89
2022/01/07 11:18:39;;;;;;;;;;;;;;;5.79;59.50;100380.75;4438424;32;20557;-89
2022/01/07 11:21:05;;;;;;;;;;;;;;;5.65;59.50;100372.19;4437828;32;20102;-89
2022/01/07 11:23:30;;;;;;;;;;;;;;;5.74;59.49;100373.91;4437657;32;20020;-90
2022/01/07 11:26:02;;;;;;;;;;;;;;;5.68;59.50;100379.94;4437707;32;20015;-89
2022/01/07 11:28:28;;;;;;;;;;;;;;;5.83;59.51;100364.38;4438871;32;20801;-90
2022/01/07 11:31:13;;;;;;;;;;;;;;;5.98;59.50;100373.00;4437708;32;19989;-89
2022/01/07 11:33:38;;;;;;;;;;;;;;;5.95;59.51;100365.25;4424866;32;20391;-90
2022/01/07 11:36:03;;;;;;;;;;;;;;;5.94;59.51;100358.38;4437153;32;19997;-89
2022/01/07 11:38:39;;;;;;;;;;;;;;;6.02;59.52;100359.19;4437436;32;19985;-90
2022/01/07 11:41:05;;;;;;;;;;;;;;;5.95;59.51;100358.38;4436262;32;20013;-89
2022/01/07 11:43:34;;;;;;;;;;;;;;;6.03;59.51;100348.00;4437367;32;20345;-89
2022/01/07 11:46:00;;;;;;;;;;;;;;;6.02;59.51;100354.03;4437375;32;20578;-90
2022/01/07 11:48:27;;;;;;;;;;;;;;;5.83;59.51;100346.31;4437200;32;19996;-89
2022/01/07 11:50:55;;;;;;;;;;;;;;;5.96;59.51;100343.72;4437068;32;19996;-89
2022/01/07 11:53:24;;;;;;;;;;;;;;;6.08;59.52;100351.41;4424361;32;20019;-89
2022/01/07 11:55:50;;;;;;;;;;;;;;;6.21;59.53;100334.12;4437255;32;20395;-89
2022/01/07 11:58:15;;;;;;;;;;;;;;;6.03;59.52;100342.81;4437109;32;20005;-89
2022/01/07 12:00:47;;;;;;;;;;;;;;;5.93;59.51;100348.91;4437209;32;19995;-90
2022/01/07 12:03:12;;;;;;;;;;;;;;;6.09;59.52;100330.72;4437270;32;20031;-89
2022/01/07 12:05:38;;;;;;;;;;;;;;;6.00;59.52;100330.78;4424393;32;20315;-89
2022/01/07 12:08:03;;;;;;;;;;;;;;;6.04;59.52;100339.38;4436981;32;19985;-88
2022/01/07 12:10:28;;;;;;;;;;;;;;;6.09;59.52;100330.72;4437160;32;19973;-89
2022/01/07 12:13:00;;;;;;;;;;;;;;;6.12;59.52;100324.69;4424386;32;19989;-89
2022/01/07 12:15:25;;;;;;;;;;;;;;;6.15;59.53;100327.25;4424356;32;19993;-88
2022/01/07 12:17:51;;;;;;;;;;;;;;;6.08;59.52;100325.56;4437269;32;19987;-89
2022/01/07 12:20:22;;;;;;;;;;;;;;;6.01;59.51;100322.16;4436789;32;19973;-89
2022/01/07 12:22:48;;;;;;;;;;;;;;;5.93;59.51;100316.19;4424134;32;20003;-89
2022/01/07 12:25:13;;;;;;;;;;;;;;;6.03;59.51;100319.56;4437154;32;20060;-89
2022/01/07 12:27:38;;;;;;;;;;;;;;;6.19;59.52;100312.59;4436627;32;19988;-89
2022/01/07 12:30:04;;;;;;;;;;;;;;;6.03;59.52;100319.56;4436908;32;19989;-89
2022/01/07 12:32:32;;;;;;;;;;;;;;;6.04;59.52;100310.94;4437067;32;20004;-89
2022/01/07 12:34:57;;;;;;;;;;;;;;;6.12;59.52;100306.59;4436474;32;20008;-89
2022/01/07 12:37:23;;;;;;;;;;;;;;;6.13;59.52;100304.00;4423999;32;19997;-89
2022/01/07 12:39:49;;;;;;;;;;;;;;;5.86;59.50;100296.34;4437011;32;20328;-89
2022/01/07 12:42:14;;;;;;;;;;;;;;;5.97;59.51;100297.22;4436893;32;20009;-89
2022/01/07 12:44:40;;;;;;;;;;;;;;;6.04;59.51;100296.28;4436568;32;23024;-89
2022/01/07 12:47:05;;;;;;;;;;;;;;;5.94;59.51;100280.87;4438390;32;19992;-89
2022/01/07 12:49:47;;;;;;;;;;;;;;;5.61;59.49;100290.41;4436888;32;20008;-89
2022/01/07 12:52:16;;;;;;;;;;;;;;;5.79;59.50;100287.75;4436888;32;20046;-89